createdAt,value
2019-02-14T00:01:09.880Z,96445.47
2019-02-14T00:03:37.333Z,96443.06
2019-02-14T00:06:04.785Z,96447.80
2019-02-14T00:08:32.287Z,96436.72
2019-02-14T00:10:59.785Z,96440.34
2019-02-14T00:13:27.147Z,96426.49
2019-02-14T00:15:54.620Z,96442.98
2019-02-14T00:18:22.042Z,96445.81
2019-02-14T00:20:49.488Z,96445.02
2019-02-14T00:23:17.100Z,96429.25
2019-02-14T00:25:44.695Z,96427.02
2019-02-14T00:28:12.232Z,96421.10
2019-02-14T00:30:39.597Z,96422.98
2019-02-14T00:33:07.071Z,96419.09
2019-02-14T00:35:34.488Z,96415.42
2019-02-14T00:38:01.966Z,96405.21
2019-02-14T00:40:29.493Z,96415.01
2019-02-14T00:42:56.923Z,96418.52
2019-02-14T00:45:24.348Z,96423.77
2019-02-14T00:47:51.850Z,96415.41
2019-02-14T00:50:19.381Z,96419.69
2019-02-14T00:52:46.867Z,96415.25
2019-02-14T00:55:14.323Z,96419.09
2019-02-14T00:57:41.729Z,96422.50
2019-02-14T01:00:09.957Z,96416.47
2019-02-14T01:02:37.413Z,96419.40
2019-02-14T01:05:05.119Z,96411.72
2019-02-14T01:07:32.617Z,96403.61
2019-02-14T01:10:00.293Z,96415.73
2019-02-14T01:12:27.776Z,96434.24
2019-02-14T01:14:55.140Z,96405.46
2019-02-14T01:17:22.905Z,96401.39
2019-02-14T01:19:50.603Z,96405.92
2019-02-14T01:22:18.227Z,96392.50
2019-02-14T01:24:45.609Z,96397.48
2019-02-14T01:27:13.048Z,96408.45
2019-02-14T01:29:40.522Z,96406.58
2019-02-14T01:32:07.877Z,96396.50
2019-02-14T01:34:35.352Z,96385.29
2019-02-14T01:37:02.799Z,96379.55
2019-02-14T01:39:30.258Z,96384.16
2019-02-14T01:41:57.685Z,96388.70
2019-02-14T01:44:25.087Z,96386.44
2019-02-14T01:46:52.559Z,96382.45
2019-02-14T01:49:20.207Z,96387.97
2019-02-14T01:51:47.771Z,96397.97
2019-02-14T01:54:15.275Z,96399.18
2019-02-14T01:56:42.830Z,96400.10
2019-02-14T01:59:10.289Z,96401.92
2019-02-14T02:01:37.839Z,96401.41
2019-02-14T02:04:05.357Z,96394.36
2019-02-14T02:06:32.801Z,96388.93
2019-02-14T02:09:00.236Z,96375.52
2019-02-14T02:11:27.672Z,96379.52
2019-02-14T02:13:55.147Z,96379.47
2019-02-14T02:16:22.595Z,96373.22
2019-02-14T02:18:49.976Z,96362.69
2019-02-14T02:21:17.436Z,96380.20
2019-02-14T02:23:44.893Z,96364.68
2019-02-14T02:26:12.418Z,96367.69
2019-02-14T02:28:39.803Z,96368.02
2019-02-14T02:31:07.248Z,96363.35
2019-02-14T02:33:34.633Z,96356.91
2019-02-14T02:36:02.026Z,96368.23
2019-02-14T02:38:29.611Z,96350.95
2019-02-14T02:40:57.057Z,96351.56
2019-02-14T02:43:24.490Z,96353.92
2019-02-14T02:45:51.859Z,96345.61
2019-02-14T02:48:19.313Z,96347.33
2019-02-14T02:50:46.864Z,96352.48
2019-02-14T02:53:14.265Z,96358.55
2019-02-14T02:55:41.726Z,96362.73
2019-02-14T02:58:09.239Z,96371.32
2019-02-14T03:00:36.658Z,96221.41
2019-02-14T03:03:04.190Z,96361.88
2019-02-14T03:05:31.745Z,96365.16
2019-02-14T03:07:59.315Z,96379.87
2019-02-14T03:10:26.843Z,96382.48
2019-02-14T03:12:54.320Z,96395.64
2019-02-14T03:15:21.830Z,96391.49
2019-02-14T03:17:49.243Z,96398.92
2019-02-14T03:20:16.710Z,96400.93
2019-02-14T03:22:44.151Z,96395.98
2019-02-14T03:25:13.818Z,96398.81
2019-02-14T03:27:41.272Z,96403.97
2019-02-14T03:30:09.381Z,96394.36
2019-02-14T03:32:36.748Z,96389.96
2019-02-14T03:35:04.514Z,96393.98
2019-02-14T03:37:31.945Z,96377.62
2019-02-14T03:39:59.334Z,96378.61
2019-02-14T03:42:26.761Z,96372.72
2019-02-14T03:44:54.174Z,96374.05
2019-02-14T03:47:21.608Z,96375.67
2019-02-14T03:49:49.037Z,96362.39
2019-02-14T03:52:16.770Z,96362.09
2019-02-14T03:54:44.364Z,96359.56
2019-02-14T03:57:11.789Z,96370.48
2019-02-14T03:59:39.234Z,96373.19
2019-02-14T04:02:07.018Z,96369.92
2019-02-14T04:04:34.519Z,96372.34
2019-02-14T04:07:01.956Z,96371.56
2019-02-14T04:09:29.549Z,96371.55
2019-02-14T04:11:56.958Z,96374.11
2019-02-14T04:14:24.886Z,96367.20
2019-02-14T04:16:52.333Z,96368.36
2019-02-14T04:19:19.926Z,96368.56
2019-02-14T04:21:47.388Z,96381.44
2019-02-14T04:24:14.857Z,96381.80
2019-02-14T04:26:42.309Z,96378.89
2019-02-14T04:29:09.691Z,96373.09
2019-02-14T04:31:37.159Z,96371.55
2019-02-14T04:34:04.882Z,96374.83
2019-02-14T04:36:36.050Z,96365.56
2019-02-14T04:39:01.635Z,96365.70
2019-02-14T04:41:29.025Z,96369.69
2019-02-14T04:43:56.516Z,96372.31
2019-02-14T04:46:23.991Z,96368.05
2019-02-14T04:48:51.475Z,96364.71
2019-02-14T04:51:18.948Z,96369.38
2019-02-14T04:53:46.557Z,96368.33
2019-02-14T04:56:14.043Z,96367.70
2019-02-14T04:58:41.421Z,96372.03
2019-02-14T05:01:08.977Z,96375.44
2019-02-14T05:03:36.708Z,96368.62
2019-02-14T05:06:04.282Z,96371.73
2019-02-14T05:08:31.732Z,96368.36
2019-02-14T05:10:59.248Z,96364.75
2019-02-14T05:13:26.760Z,96355.27
2019-02-14T05:15:54.126Z,96366.21
2019-02-14T05:18:21.587Z,96363.17
2019-02-14T05:20:49.064Z,96368.05
2019-02-14T05:23:16.515Z,96378.85
2019-02-14T05:25:43.949Z,96371.25
2019-02-14T05:28:11.323Z,96386.69
2019-02-14T05:30:38.796Z,96388.28
2019-02-14T05:33:06.234Z,96390.64
2019-02-14T05:35:33.671Z,96393.57
2019-02-14T05:38:01.068Z,96396.70
2019-02-14T05:40:28.507Z,96398.23
2019-02-14T05:42:55.944Z,96400.66
2019-02-14T05:45:23.418Z,96392.11
2019-02-14T05:47:50.785Z,96398.27
2019-02-14T05:50:18.352Z,96394.97
2019-02-14T05:52:45.805Z,96402.87
2019-02-14T05:55:13.340Z,96402.44
2019-02-14T05:57:41.070Z,96398.92
2019-02-14T06:00:10.586Z,96408.12
2019-02-14T06:02:38.182Z,96401.11
2019-02-14T06:05:05.825Z,96397.72
2019-02-14T06:07:33.210Z,96406.23
2019-02-14T06:10:00.649Z,96398.59
2019-02-14T06:12:28.294Z,96389.91
2019-02-14T06:14:55.731Z,96398.25
2019-02-14T06:17:23.213Z,96383.75
2019-02-14T06:19:50.648Z,96390.48
2019-02-14T06:22:18.350Z,96396.73
2019-02-14T06:24:45.856Z,96401.00
2019-02-14T06:27:13.331Z,96409.25
2019-02-14T06:29:40.776Z,96409.96
2019-02-14T06:32:08.218Z,96400.34
2019-02-14T06:34:35.656Z,96406.45
2019-02-14T06:37:09.457Z,96404.66
2019-02-14T06:39:32.411Z,96405.14
2019-02-14T06:41:59.920Z,96404.45
2019-02-14T06:44:27.380Z,96411.33
2019-02-14T06:46:54.764Z,96409.86
2019-02-14T06:49:22.568Z,96411.11
2019-02-14T06:51:50.095Z,96411.81
2019-02-14T06:54:17.495Z,96404.77
2019-02-14T06:56:45.069Z,96407.45
2019-02-14T06:59:12.631Z,96398.80
2019-02-14T07:01:40.106Z,96401.91
2019-02-14T07:04:07.570Z,96408.27
2019-02-14T07:06:35.083Z,96398.97
2019-02-14T07:09:04.454Z,96398.85
2019-02-14T07:11:31.954Z,96388.94
2019-02-14T07:13:59.417Z,96399.82
2019-02-14T07:16:26.868Z,96402.74
2019-02-14T07:18:54.293Z,96381.17
2019-02-14T07:21:21.907Z,96387.28
2019-02-14T07:23:49.259Z,96376.06
2019-02-14T07:26:16.705Z,96365.00
2019-02-14T07:28:44.138Z,96365.63
2019-02-14T07:31:11.579Z,96358.97
2019-02-14T07:33:39.004Z,96357.83
2019-02-14T07:36:06.384Z,96363.17
2019-02-14T07:38:33.833Z,96350.81
2019-02-14T07:41:01.243Z,96350.77
2019-02-14T07:43:28.781Z,96341.94
2019-02-14T07:45:56.218Z,96343.66
2019-02-14T07:48:23.656Z,96337.41
2019-02-14T07:50:51.108Z,96334.41
2019-02-14T07:53:18.512Z,96332.95
2019-02-14T07:55:46.093Z,96332.72
2019-02-14T07:58:13.670Z,96332.94
2019-02-14T08:00:41.140Z,96336.42
2019-02-14T08:03:08.575Z,96335.63
2019-02-14T08:05:35.987Z,96338.40
2019-02-14T08:08:03.348Z,96325.22
2019-02-14T08:10:30.799Z,96315.22
2019-02-14T08:12:58.257Z,96334.81
2019-02-14T08:15:25.676Z,96316.30
2019-02-14T08:17:53.118Z,96309.66
2019-02-14T08:20:20.761Z,96316.92
2019-02-14T08:22:48.201Z,96310.66
2019-02-14T08:25:15.650Z,96315.25
2019-02-14T08:27:43.082Z,96316.88
2019-02-14T08:30:12.420Z,96312.80
2019-02-14T08:32:39.965Z,96308.45
2019-02-14T08:35:07.722Z,96312.21
2019-02-14T08:37:35.190Z,96319.09
2019-02-14T08:40:02.702Z,96310.03
2019-02-14T08:42:30.129Z,96313.81
2019-02-14T08:44:57.590Z,96314.89
2019-02-14T08:47:24.992Z,96310.44
2019-02-14T08:49:52.452Z,96312.25
2019-02-14T08:52:19.915Z,96308.41
2019-02-14T08:54:47.386Z,96296.46
2019-02-14T08:57:14.765Z,96296.43
2019-02-14T08:59:42.337Z,96303.25
2019-02-14T09:02:09.896Z,96296.68
2019-02-14T09:04:37.287Z,96287.52
2019-02-14T09:07:04.737Z,96298.70
2019-02-14T09:09:32.165Z,96292.72
2019-02-14T09:12:00.144Z,96283.34
2019-02-14T09:14:27.552Z,96277.25
2019-02-14T09:16:55.012Z,96275.95
2019-02-14T09:19:22.501Z,96269.24
2019-02-14T09:21:49.916Z,96269.05
2019-02-14T09:24:17.306Z,96270.19
2019-02-14T09:26:44.741Z,96263.91
2019-02-14T09:29:14.316Z,96266.81
2019-02-14T09:31:41.480Z,96258.39
2019-02-14T09:34:08.907Z,96262.24
2019-02-14T09:36:36.351Z,96252.63
2019-02-14T09:39:05.139Z,96253.97
2019-02-14T09:41:32.569Z,96243.83
2019-02-14T09:44:00.093Z,96245.30
2019-02-14T09:46:27.550Z,96232.68
2019-02-14T09:48:55.007Z,96231.54
2019-02-14T09:51:22.387Z,96226.19
2019-02-14T09:53:49.856Z,96235.14
2019-02-14T09:56:17.294Z,96226.85
2019-02-14T09:58:44.720Z,96220.91
2019-02-14T10:01:12.284Z,96218.61
2019-02-14T10:03:39.828Z,96202.56
2019-02-14T10:06:07.350Z,96193.92
2019-02-14T10:08:34.827Z,96201.04
2019-02-14T10:11:02.290Z,96197.86
2019-02-14T10:13:29.923Z,96195.56
2019-02-14T10:15:57.342Z,96190.75
2019-02-14T10:18:24.719Z,96192.95
2019-02-14T10:20:52.163Z,96191.39
2019-02-14T10:23:19.586Z,96175.73
2019-02-14T10:25:47.019Z,96162.50
2019-02-14T10:28:14.448Z,96158.47
2019-02-14T10:30:41.863Z,96161.23
2019-02-14T10:33:09.266Z,96152.19
2019-02-14T10:35:36.686Z,96142.28
2019-02-14T10:38:04.161Z,96144.45
2019-02-14T10:40:31.733Z,96133.09
2019-02-14T10:42:59.106Z,96143.90
2019-02-14T10:45:26.619Z,96128.66
2019-02-14T10:47:54.127Z,96127.44
2019-02-14T10:50:21.501Z,96118.63
2019-02-14T10:52:49.005Z,96120.60
2019-02-14T10:55:16.547Z,96116.55
2019-02-14T10:57:44.099Z,96122.16
2019-02-14T11:00:17.622Z,96148.93
2019-02-14T11:02:46.073Z,96120.93
2019-02-14T11:05:14.520Z,96114.67
2019-02-14T11:07:42.009Z,96110.77
2019-02-14T11:10:10.088Z,96104.23
2019-02-14T11:12:37.648Z,96101.64
2019-02-14T11:15:05.684Z,96102.81
2019-02-14T11:17:33.071Z,96098.47
2019-02-14T11:20:00.484Z,96105.16
2019-02-14T11:22:27.909Z,96106.86
2019-02-14T11:24:55.458Z,96097.34
2019-02-14T11:27:22.879Z,96091.78
2019-02-14T11:29:50.314Z,96091.72
2019-02-14T11:32:17.747Z,96094.41
2019-02-14T11:34:45.128Z,96086.89
2019-02-14T11:37:12.573Z,96085.42
2019-02-14T11:39:40.000Z,96093.01
2019-02-14T11:42:07.365Z,96079.42
2019-02-14T11:44:39.847Z,96080.56
2019-02-14T11:47:04.147Z,96065.84
2019-02-14T11:49:31.583Z,96070.59
2019-02-14T11:51:58.955Z,96059.30
2019-02-14T11:54:26.532Z,96050.41
2019-02-14T11:56:54.036Z,96048.41
2019-02-14T11:59:21.388Z,96052.56
2019-02-14T12:01:55.237Z,96057.15
2019-02-14T12:04:18.312Z,96052.72
2019-02-14T12:06:45.775Z,96043.93
2019-02-14T12:09:13.363Z,96050.11
2019-02-14T12:11:40.800Z,96045.75
2019-02-14T12:14:08.228Z,96030.50
2019-02-14T12:16:35.633Z,96030.97
2019-02-14T12:19:03.159Z,96035.42
2019-02-14T12:21:30.584Z,96037.54
2019-02-14T12:23:57.938Z,96035.78
2019-02-14T12:26:25.439Z,96038.95
2019-02-14T12:28:53.003Z,96039.16
2019-02-14T12:31:20.401Z,96035.63
2019-02-14T12:33:47.847Z,96035.22
2019-02-14T12:36:15.328Z,96028.34
2019-02-14T12:38:42.780Z,96026.16
2019-02-14T12:41:10.208Z,96020.80
2019-02-14T12:43:37.585Z,96030.91
2019-02-14T12:46:05.019Z,96030.76
2019-02-14T12:48:32.466Z,96026.12
2019-02-14T12:50:59.886Z,96035.66
2019-02-14T12:53:27.317Z,96029.45
2019-02-14T12:55:54.763Z,96027.67
2019-02-14T12:58:22.151Z,96033.05
2019-02-14T13:00:49.602Z,96027.33
2019-02-14T13:03:17.051Z,96035.26
2019-02-14T13:05:44.559Z,96029.68
2019-02-14T13:08:12.080Z,96031.25
2019-02-14T13:10:39.565Z,96027.83
2019-02-14T13:13:07.047Z,96025.26
2019-02-14T13:15:34.510Z,96012.04
2019-02-14T13:18:02.021Z,96014.13
2019-02-14T13:20:29.453Z,96011.25
2019-02-14T13:22:56.907Z,96012.23
2019-02-14T13:25:24.342Z,96017.95
2019-02-14T13:27:51.821Z,96018.42
2019-02-14T13:30:20.824Z,96024.80
2019-02-14T13:32:48.291Z,96009.97
2019-02-14T13:35:15.738Z,96017.48
2019-02-14T13:37:43.160Z,96019.44
2019-02-14T13:40:10.595Z,96020.20
2019-02-14T13:42:38.063Z,96021.33
2019-02-14T13:45:08.109Z,96020.48
2019-02-14T13:47:35.495Z,96005.33
2019-02-14T13:50:03.009Z,95999.05
2019-02-14T13:52:30.453Z,96016.73
2019-02-14T13:54:57.813Z,96013.38
2019-02-14T13:57:25.242Z,96018.38
2019-02-14T13:59:52.709Z,95996.15
2019-02-14T14:02:20.133Z,96000.38
2019-02-14T14:04:47.594Z,96005.26
2019-02-14T14:07:15.184Z,96013.44
2019-02-14T14:09:42.580Z,96005.98
2019-02-14T14:12:10.029Z,95997.70
2019-02-14T14:14:37.488Z,95997.49
2019-02-14T14:17:04.900Z,95996.57
2019-02-14T14:19:32.421Z,95995.17
2019-02-14T14:21:59.899Z,95992.37
2019-02-14T14:24:27.278Z,95996.06
2019-02-14T14:26:54.766Z,95991.50
2019-02-14T14:29:22.181Z,95995.02
2019-02-14T14:31:49.625Z,95993.09
2019-02-14T14:34:17.050Z,95997.86
2019-02-14T14:36:44.442Z,95994.98
2019-02-14T14:39:11.851Z,95994.75
2019-02-14T14:41:39.287Z,95989.07
2019-02-14T14:44:33.103Z,95989.44
2019-02-14T14:47:08.883Z,95994.39
2019-02-14T14:49:36.340Z,95987.38
2019-02-14T14:52:03.782Z,95994.83
2019-02-14T14:54:31.144Z,95989.80
2019-02-14T14:56:58.602Z,95992.50
2019-02-14T14:59:26.047Z,95994.03
2019-02-14T15:01:53.573Z,96000.73
2019-02-14T15:04:21.023Z,95996.36
2019-02-14T15:06:48.439Z,96000.20
2019-02-14T15:09:15.977Z,96004.41
2019-02-14T15:11:43.379Z,96005.20
2019-02-14T15:14:10.920Z,96007.66
2019-02-14T15:16:38.334Z,96002.28
2019-02-14T15:19:05.776Z,96009.18
2019-02-14T15:21:33.160Z,96005.03
2019-02-14T15:24:00.602Z,96003.70
2019-02-14T15:26:28.042Z,96012.30
2019-02-14T15:28:55.509Z,96007.91
2019-02-14T15:31:22.867Z,96012.91
2019-02-14T15:33:50.320Z,96012.70
2019-02-14T15:36:17.750Z,96019.80
2019-02-14T15:38:45.156Z,96020.38
2019-02-14T15:41:12.617Z,96020.56
2019-02-14T15:43:40.047Z,96022.66
2019-02-14T15:46:07.478Z,96020.19
2019-02-14T15:48:34.850Z,96014.43
2019-02-14T15:51:02.305Z,96026.66
2019-02-14T15:53:29.759Z,96018.44
2019-02-14T15:55:57.186Z,96018.26
2019-02-14T15:58:24.619Z,96026.52
2019-02-14T16:00:53.997Z,96014.25
2019-02-14T16:03:21.418Z,96022.48
2019-02-14T16:05:48.771Z,96030.70
2019-02-14T16:08:16.199Z,96018.66
2019-02-14T16:10:43.801Z,96019.81
2019-02-14T16:13:11.325Z,96018.84
2019-02-14T16:15:38.797Z,96009.27
2019-02-14T16:18:06.132Z,96022.09
2019-02-14T16:20:33.598Z,96028.60
2019-02-14T16:23:01.057Z,96035.68
2019-02-14T16:25:30.196Z,96030.14
2019-02-14T16:27:57.795Z,96021.14
2019-02-14T16:30:25.277Z,96033.96
2019-02-14T16:32:52.744Z,96025.94
2019-02-14T16:35:20.128Z,96029.37
2019-02-14T16:37:48.728Z,96030.34
2019-02-14T16:40:16.967Z,96031.48
2019-02-14T16:42:44.474Z,96034.72
2019-02-14T16:45:11.972Z,96031.66
2019-02-14T16:47:39.369Z,96033.19
2019-02-14T16:50:07.158Z,96038.55
2019-02-14T16:52:34.610Z,96032.04
2019-02-14T16:55:02.051Z,96037.40
2019-02-14T16:57:29.512Z,96028.99
2019-02-14T16:59:56.961Z,96021.33
2019-02-14T17:02:24.404Z,96035.69
2019-02-14T17:04:51.812Z,96024.00
2019-02-14T17:07:19.234Z,96022.86
2019-02-14T17:09:46.764Z,96027.66
2019-02-14T17:12:14.345Z,96024.58
2019-02-14T17:14:41.766Z,96020.17
2019-02-14T17:17:09.216Z,96020.94
2019-02-14T17:19:36.691Z,96016.36
2019-02-14T17:22:04.178Z,96023.23
2019-02-14T17:24:31.633Z,96019.03
2019-02-14T17:26:59.148Z,96018.62
2019-02-14T17:29:26.505Z,96023.97
2019-02-14T17:31:53.988Z,96024.94
2019-02-14T17:34:21.430Z,96032.39
2019-02-14T17:36:48.990Z,96036.25
2019-02-14T17:39:16.446Z,96039.49
2019-02-14T17:41:43.843Z,96036.23
2019-02-14T17:44:11.274Z,96032.59
2019-02-14T17:46:38.717Z,96028.21
2019-02-14T17:49:06.091Z,96037.02
2019-02-14T17:51:33.549Z,96031.42
2019-02-14T17:54:01.832Z,96024.38
2019-02-14T17:56:29.339Z,96017.47
2019-02-14T17:58:56.765Z,96019.38
2019-02-14T18:01:24.326Z,96023.78
2019-02-14T18:03:51.780Z,96022.06
2019-02-14T18:06:19.156Z,96018.08
2019-02-14T18:08:46.596Z,96015.94
2019-02-14T18:11:14.045Z,96018.83
2019-02-14T18:13:41.683Z,96000.77
2019-02-14T18:16:09.187Z,95994.49
2019-02-14T18:18:36.681Z,95996.42
2019-02-14T18:21:04.062Z,96002.55
2019-02-14T18:23:31.527Z,95998.34
2019-02-14T18:25:58.944Z,96000.23
2019-02-14T18:28:26.416Z,96007.45
2019-02-14T18:30:53.854Z,96010.95
2019-02-14T18:33:21.458Z,96003.33
2019-02-14T18:35:48.942Z,96006.01
2019-02-14T18:38:16.426Z,96003.08
2019-02-14T18:40:43.812Z,95994.11
2019-02-14T18:43:11.310Z,96010.19
2019-02-14T18:45:38.717Z,96002.97
2019-02-14T18:48:06.118Z,96004.09
2019-02-14T18:50:33.582Z,96008.12
2019-02-14T18:53:01.035Z,96016.16
2019-02-14T18:55:28.443Z,96001.05
2019-02-14T18:57:55.887Z,96007.36
2019-02-14T19:00:23.391Z,95997.78
2019-02-14T19:02:50.823Z,96000.29
2019-02-14T19:05:18.311Z,95998.95
2019-02-14T19:07:45.731Z,95997.60
2019-02-14T19:10:13.332Z,95999.32
2019-02-14T19:12:40.859Z,96002.56
2019-02-14T19:15:09.913Z,95991.08
2019-02-14T19:17:37.458Z,96001.61
2019-02-14T19:20:05.647Z,95995.67
2019-02-14T19:22:33.205Z,95986.48
2019-02-14T19:25:00.690Z,95999.32
2019-02-14T19:27:28.096Z,95997.98
2019-02-14T19:29:56.363Z,95991.08
2019-02-14T19:32:23.922Z,95992.23
2019-02-14T19:34:52.395Z,95990.70
2019-02-14T19:37:20.016Z,95982.70
2019-02-14T19:39:47.651Z,95986.13
2019-02-14T19:42:15.116Z,95974.08
2019-02-14T19:44:43.038Z,95977.34
2019-02-14T19:47:10.506Z,95981.94
2019-02-14T19:49:37.990Z,95979.45
2019-02-14T19:52:05.410Z,95975.79
2019-02-14T19:54:32.935Z,95965.08
2019-02-14T19:57:00.303Z,95965.47
2019-02-14T19:59:27.755Z,95954.00
2019-02-14T20:01:55.171Z,95973.88
2019-02-14T20:04:22.991Z,95980.38
2019-02-14T20:06:50.461Z,95972.36
2019-02-14T20:09:19.448Z,95981.14
2019-02-14T20:11:46.915Z,95979.27
2019-02-14T20:14:14.370Z,95979.27
2019-02-14T20:16:42.016Z,95982.11
2019-02-14T20:19:09.627Z,95969.31
2019-02-14T20:21:38.718Z,95972.94
2019-02-14T20:24:06.170Z,95975.04
2019-02-14T20:26:33.677Z,95969.10
2019-02-14T20:29:01.155Z,95982.32
2019-02-14T20:31:28.647Z,95989.20
2019-02-14T20:33:56.217Z,95986.70
2019-02-14T20:36:23.884Z,95983.46
2019-02-14T20:38:51.887Z,95993.59
2019-02-14T20:41:19.374Z,95987.30
2019-02-14T20:43:46.839Z,95978.48
2019-02-14T20:46:14.217Z,95993.02
2019-02-14T20:48:41.678Z,95998.00
2019-02-14T20:51:09.213Z,95986.69
2019-02-14T20:53:36.639Z,95980.89
2019-02-14T20:56:04.127Z,95978.08
2019-02-14T20:58:31.689Z,95975.42
2019-02-14T21:00:59.959Z,95967.57
2019-02-14T21:03:27.319Z,95961.61
2019-02-14T21:05:54.754Z,95952.63
2019-02-14T21:08:22.199Z,95934.50
2019-02-14T21:10:49.593Z,95932.58
2019-02-14T21:13:17.031Z,95943.50
2019-02-14T21:15:44.973Z,95940.99
2019-02-14T21:18:12.601Z,95949.22
2019-02-14T21:20:40.242Z,95946.16
2019-02-14T21:23:07.716Z,95949.02
2019-02-14T21:25:35.101Z,95948.64
2019-02-14T21:28:02.692Z,95941.39
2019-02-14T21:30:35.118Z,95938.52
2019-02-14T21:33:00.468Z,95938.53
2019-02-14T21:35:27.829Z,95939.09
2019-02-14T21:37:55.252Z,95947.13
2019-02-14T21:40:22.676Z,95942.34
2019-02-14T21:42:50.160Z,95939.64
2019-02-14T21:45:17.589Z,95940.98
2019-02-14T21:47:45.065Z,95940.81
2019-02-14T21:50:12.779Z,95943.12
2019-02-14T21:52:40.281Z,95940.61
2019-02-14T21:55:08.616Z,95938.52
2019-02-14T21:57:36.059Z,95943.30
2019-02-14T22:00:04.975Z,95941.58
2019-02-14T22:02:32.430Z,95935.27
2019-02-14T22:04:59.892Z,95931.07
2019-02-14T22:07:27.301Z,95933.35
2019-02-14T22:09:54.730Z,95919.95
2019-02-14T22:12:38.913Z,95922.45
2019-02-14T22:14:51.543Z,95920.14
2019-02-14T22:17:19.083Z,95916.30
2019-02-14T22:19:46.627Z,95924.92
2019-02-14T22:22:14.000Z,95926.66
2019-02-14T22:24:41.540Z,95926.64
2019-02-14T22:27:08.970Z,95926.66
2019-02-14T22:29:36.365Z,95923.59
2019-02-14T22:32:03.821Z,95933.36
2019-02-14T22:34:31.268Z,95926.26
2019-02-14T22:36:58.689Z,95917.69
2019-02-14T22:39:26.479Z,95920.53
2019-02-14T22:41:53.977Z,95922.64
2019-02-14T22:44:21.410Z,95909.27
2019-02-14T22:46:48.833Z,95928.75
2019-02-14T22:49:16.282Z,95924.92
2019-02-14T22:51:43.699Z,95924.16
2019-02-14T22:54:11.085Z,95920.91
2019-02-14T22:56:38.524Z,95921.30
2019-02-14T22:59:05.964Z,95916.53
2019-02-14T23:01:33.459Z,95913.28
2019-02-14T23:04:00.921Z,95916.13
2019-02-14T23:06:29.369Z,95908.30
2019-02-14T23:08:57.061Z,95911.17
2019-02-14T23:11:24.487Z,95919.58
2019-02-14T23:13:51.937Z,95909.08
2019-02-14T23:16:19.406Z,95924.00
2019-02-14T23:18:46.863Z,95923.78
2019-02-14T23:21:14.405Z,95922.83
2019-02-14T23:23:41.899Z,95942.31
2019-02-14T23:26:09.332Z,95920.73
2019-02-14T23:28:36.774Z,95925.32
2019-02-14T23:31:04.247Z,95924.92
2019-02-14T23:33:31.663Z,95919.58
2019-02-14T23:35:59.094Z,95923.80
2019-02-14T23:38:26.488Z,95917.11
2019-02-14T23:40:53.912Z,95916.90
2019-02-14T23:43:21.385Z,95922.25
2019-02-14T23:45:48.769Z,95916.53
2019-02-14T23:48:16.244Z,95923.59
2019-02-14T23:50:43.641Z,95912.70
2019-02-14T23:53:11.075Z,95906.78
2019-02-14T23:55:38.507Z,95913.29
2019-02-14T23:58:06.032Z,95911.56
